Time;durP1;ratioP1;P1;durP2;ratioP2;P2;SDS_P1;SDS_P2;PMS_P1;PMS_P2;Temp;Humidity;BMP_temperature;BMP_pressure;BME280_temperature;BME280_humidity;BME280_pressure;Samples;Min_cycle;Max_cycle;Signal;HPM_P1;HPM_P2
2021/05/16 00:00:49;;;;;;;1.5;1.1;;;;;;;7.39;100;94294.6;;;;
2021/05/16 00:01:50;;;;;;;1.5;1.1;;;;;;;7.39;100;94294.6;;;;
2021/05/16 00:02:50;;;;;;;1.5;1.1;;;;;;;7.39;100;94294.6;;;;
2021/05/16 00:03:52;;;;;;;1.5;1.1;;;;;;;7.39;100;94294.6;;;;
2021/05/16 00:04:52;;;;;;;1.5;1.1;;;;;;;7.39;100;94294.6;;;;
2021/05/16 00:05:53;;;;;;;1.5;1.1;;;;;;;7.39;100;94294.6;;;;
2021/05/16 00:06:54;;;;;;;1.5;1.1;;;;;;;7.39;100;94294.6;;;;
2021/05/16 00:07:54;;;;;;;2.2;1.2;;;;;;;7.21;100;94311.42;;;;
2021/05/16 00:08:55;;;;;;;2.2;1.2;;;;;;;7.21;100;94311.42;;;;
2021/05/16 00:09:56;;;;;;;2.2;1.2;;;;;;;7.21;100;94311.42;;;;
2021/05/16 00:10:56;;;;;;;2.2;1.2;;;;;;;7.21;100;94311.42;;;;
2021/05/16 00:11:57;;;;;;;2.2;1.2;;;;;;;7.21;100;94311.42;;;;
2021/05/16 00:12:58;;;;;;;2.2;1.2;;;;;;;7.21;100;94311.42;;;;
2021/05/16 00:13:59;;;;;;;2.2;1.2;;;;;;;7.21;100;94311.42;;;;
2021/05/16 00:15:00;;;;;;;2.2;1.2;;;;;;;7.21;100;94311.42;;;;
2021/05/16 00:16:01;;;;;;;2.2;1.2;;;;;;;7.21;100;94311.42;;;;
2021/05/16 00:17:01;;;;;;;2.2;1.2;;;;;;;7.21;100;94311.42;;;;
2021/05/16 00:18:04;;;;;;;2.2;1.2;;;;;;;7.21;100;94311.42;;;;
2021/05/16 00:19:05;;;;;;;1.15;1.05;;;;;;;7;100;94324.02;;;;
2021/05/16 00:20:08;;;;;;;1.15;1.05;;;;;;;7;100;94324.02;;;;
2021/05/16 00:21:12;;;;;;;1.15;1.05;;;;;;;7;100;94324.02;;;;
2021/05/16 00:22:13;;;;;;;1.15;1.05;;;;;;;7;100;94324.02;;;;
2021/05/16 00:23:13;;;;;;;1.15;1.05;;;;;;;7;100;94324.02;;;;
2021/05/16 00:24:14;;;;;;;1.15;1.05;;;;;;;7;100;94324.02;;;;
2021/05/16 00:25:15;;;;;;;1.15;1.05;;;;;;;7;100;94324.02;;;;
2021/05/16 00:26:17;;;;;;;1.15;1.05;;;;;;;7;100;94324.02;;;;
2021/05/16 00:27:17;;;;;;;1.15;1.05;;;;;;;7;100;94324.02;;;;
2021/05/16 00:28:18;;;;;;;1.15;1.05;;;;;;;7;100;94324.02;;;;
2021/05/16 00:29:19;;;;;;;1;0.9;;;;;;;6.82;100;94329.53;;;;
2021/05/16 00:30:19;;;;;;;1;0.9;;;;;;;6.82;100;94329.53;;;;
2021/05/16 00:31:22;;;;;;;1;0.9;;;;;;;6.82;100;94329.53;;;;
2021/05/16 00:32:23;;;;;;;1;0.9;;;;;;;6.82;100;94329.53;;;;
2021/05/16 00:33:23;;;;;;;1;0.9;;;;;;;6.82;100;94329.53;;;;
2021/05/16 00:34:24;;;;;;;1;0.9;;;;;;;6.82;100;94329.53;;;;
2021/05/16 00:35:24;;;;;;;1;0.9;;;;;;;6.82;100;94329.53;;;;
2021/05/16 00:36:27;;;;;;;1;0.9;;;;;;;6.82;100;94329.53;;;;
2021/05/16 00:37:28;;;;;;;1;0.9;;;;;;;6.82;100;94329.53;;;;
2021/05/16 00:38:28;;;;;;;1;0.9;;;;;;;6.82;100;94329.53;;;;
2021/05/16 00:39:29;;;;;;;1;0.9;;;;;;;6.82;100;94329.53;;;;
2021/05/16 00:40:29;;;;;;;1;0.9;;;;;;;6.68;100;94327.34;;;;
2021/05/16 00:41:32;;;;;;;1;0.9;;;;;;;6.68;100;94327.34;;;;
2021/05/16 00:42:32;;;;;;;1;0.9;;;;;;;6.68;100;94327.34;;;;
2021/05/16 00:43:33;;;;;;;1;0.9;;;;;;;6.68;100;94327.34;;;;
2021/05/16 00:44:33;;;;;;;1;0.9;;;;;;;6.68;100;94327.34;;;;
2021/05/16 00:45:34;;;;;;;1;0.9;;;;;;;6.68;100;94327.34;;;;
2021/05/16 00:46:35;;;;;;;1;0.9;;;;;;;6.68;100;94327.34;;;;
2021/05/16 00:47:36;;;;;;;1;0.9;;;;;;;6.68;100;94327.34;;;;
2021/05/16 00:48:38;;;;;;;1;0.9;;;;;;;6.68;100;94327.34;;;;
2021/05/16 00:49:38;;;;;;;1;0.9;;;;;;;6.68;100;94327.34;;;;
2021/05/16 00:50:39;;;;;;;1.6;1;;;;;;;6.53;100;94330.91;;;;
2021/05/16 00:51:42;;;;;;;1.6;1;;;;;;;6.53;100;94330.91;;;;
2021/05/16 00:52:42;;;;;;;1.6;1;;;;;;;6.53;100;94330.91;;;;
2021/05/16 00:53:43;;;;;;;1.6;1;;;;;;;6.53;100;94330.91;;;;
2021/05/16 00:54:44;;;;;;;1.6;1;;;;;;;6.53;100;94330.91;;;;
2021/05/16 00:55:45;;;;;;;1.6;1;;;;;;;6.53;100;94330.91;;;;
2021/05/16 00:56:46;;;;;;;1.6;1;;;;;;;6.53;100;94330.91;;;;
2021/05/16 00:57:47;;;;;;;1.6;1;;;;;;;6.53;100;94330.91;;;;
2021/05/16 00:58:48;;;;;;;1.6;1;;;;;;;6.53;100;94330.91;;;;
2021/05/16 00:59:49;;;;;;;1.6;1;;;;;;;6.53;100;94330.91;;;;
2021/05/16 01:00:49;;;;;;;1.6;1;;;;;;;6.53;100;94330.91;;;;
2021/05/16 01:01:52;;;;;;;1.1;0.9;;;;;;;6.4;100;94328.08;;;;
2021/05/16 01:02:53;;;;;;;1.1;0.9;;;;;;;6.4;100;94328.08;;;;
2021/05/16 01:03:54;;;;;;;1.1;0.9;;;;;;;6.4;100;94328.08;;;;
2021/05/16 01:04:55;;;;;;;1.1;0.9;;;;;;;6.4;100;94328.08;;;;
2021/05/16 01:05:56;;;;;;;1.1;0.9;;;;;;;6.4;100;94328.08;;;;
2021/05/16 01:06:56;;;;;;;1.1;0.9;;;;;;;6.4;100;94328.08;;;;
2021/05/16 01:07:57;;;;;;;1.1;0.9;;;;;;;6.4;100;94328.08;;;;
2021/05/16 01:08:58;;;;;;;1.1;0.9;;;;;;;6.4;100;94328.08;;;;
2021/05/16 01:09:59;;;;;;;1.1;0.9;;;;;;;6.4;100;94328.08;;;;
2021/05/16 01:11:00;;;;;;;1.1;0.9;;;;;;;6.4;100;94328.08;;;;
2021/05/16 01:12:02;;;;;;;1.5;0.9;;;;;;;6.38;100;94323.07;;;;
2021/05/16 01:13:05;;;;;;;1.5;0.9;;;;;;;6.38;100;94323.07;;;;
2021/05/16 01:14:07;;;;;;;1.5;0.9;;;;;;;6.38;100;94323.07;;;;
2021/05/16 01:15:07;;;;;;;1.5;0.9;;;;;;;6.38;100;94323.07;;;;
2021/05/16 01:16:11;;;;;;;1.5;0.9;;;;;;;6.38;100;94323.07;;;;
2021/05/16 01:17:11;;;;;;;1.5;0.9;;;;;;;6.38;100;94323.07;;;;
2021/05/16 01:18:12;;;;;;;1.5;0.9;;;;;;;6.38;100;94323.07;;;;
2021/05/16 01:19:14;;;;;;;1.5;0.9;;;;;;;6.38;100;94323.07;;;;
2021/05/16 01:20:14;;;;;;;1.5;0.9;;;;;;;6.38;100;94323.07;;;;
2021/05/16 01:21:18;;;;;;;1.5;0.9;;;;;;;6.38;100;94323.07;;;;
2021/05/16 01:22:20;;;;;;;2;1.05;;;;;;;6.35;100;94322.19;;;;
2021/05/16 01:23:24;;;;;;;2;1.05;;;;;;;6.35;100;94322.19;;;;
2021/05/16 01:24:27;;;;;;;2;1.05;;;;;;;6.35;100;94322.19;;;;
2021/05/16 01:25:27;;;;;;;2;1.05;;;;;;;6.35;100;94322.19;;;;
2021/05/16 01:26:30;;;;;;;2;1.05;;;;;;;6.35;100;94322.19;;;;
2021/05/16 01:27:30;;;;;;;2;1.05;;;;;;;6.35;100;94322.19;;;;
2021/05/16 01:28:31;;;;;;;2;1.05;;;;;;;6.35;100;94322.19;;;;
2021/05/16 01:29:31;;;;;;;2;1.05;;;;;;;6.35;100;94322.19;;;;
2021/05/16 01:30:32;;;;;;;2;1.05;;;;;;;6.35;100;94322.19;;;;
2021/05/16 01:31:34;;;;;;;2;1.05;;;;;;;6.35;100;94322.19;;;;
2021/05/16 01:32:34;;;;;;;2;1.05;;;;;;;6.35;100;94322.19;;;;
2021/05/16 01:33:35;;;;;;;2.5;1.2;;;;;;;6.23;100;94324.45;;;;
2021/05/16 01:34:36;;;;;;;2.5;1.2;;;;;;;6.23;100;94324.45;;;;
2021/05/16 01:35:37;;;;;;;2.5;1.2;;;;;;;6.23;100;94324.45;;;;
2021/05/16 01:36:38;;;;;;;2.5;1.2;;;;;;;6.23;100;94324.45;;;;
2021/05/16 01:37:39;;;;;;;2.5;1.2;;;;;;;6.23;100;94324.45;;;;
2021/05/16 01:38:40;;;;;;;2.5;1.2;;;;;;;6.23;100;94324.45;;;;
2021/05/16 01:39:40;;;;;;;2.5;1.2;;;;;;;6.23;100;94324.45;;;;
2021/05/16 01:40:42;;;;;;;2.5;1.2;;;;;;;6.23;100;94324.45;;;;
2021/05/16 01:41:43;;;;;;;2.5;1.2;;;;;;;6.23;100;94324.45;;;;
2021/05/16 01:42:47;;;;;;;2.5;1.2;;;;;;;6.23;100;94324.45;;;;
2021/05/16 01:43:49;;;;;;;1.7;1;;;;;;;6.13;100;94318.86;;;;
2021/05/16 01:44:50;;;;;;;1.7;1;;;;;;;6.13;100;94318.86;;;;
2021/05/16 01:45:51;;;;;;;1.7;1;;;;;;;6.13;100;94318.86;;;;
2021/05/16 01:46:52;;;;;;;1.7;1;;;;;;;6.13;100;94318.86;;;;
2021/05/16 01:47:52;;;;;;;1.7;1;;;;;;;6.13;100;94318.86;;;;
2021/05/16 01:48:54;;;;;;;1.7;1;;;;;;;6.13;100;94318.86;;;;
2021/05/16 01:49:55;;;;;;;1.7;1;;;;;;;6.13;100;94318.86;;;;
2021/05/16 01:51:04;;;;;;;1.7;1;;;;;;;6.13;100;94318.86;;;;
2021/05/16 01:52:04;;;;;;;1.7;1;;;;;;;6.13;100;94318.86;;;;
2021/05/16 01:53:06;;;;;;;1.7;1;;;;;;;6.13;100;94318.86;;;;
2021/05/16 01:54:08;;;;;;;1.7;1;;;;;;;6.13;100;94318.86;;;;
2021/05/16 01:55:10;;;;;;;2.55;1.1;;;;;;;6.03;100;94309.64;;;;
2021/05/16 01:56:13;;;;;;;2.55;1.1;;;;;;;6.03;100;94309.64;;;;
2021/05/16 01:57:20;;;;;;;2.55;1.1;;;;;;;6.03;100;94309.64;;;;
2021/05/16 01:58:21;;;;;;;2.55;1.1;;;;;;;6.03;100;94309.64;;;;
2021/05/16 01:59:22;;;;;;;2.55;1.1;;;;;;;6.03;100;94309.64;;;;
2021/05/16 02:00:23;;;;;;;2.55;1.1;;;;;;;6.03;100;94309.64;;;;
2021/05/16 02:01:29;;;;;;;2.55;1.1;;;;;;;6.03;100;94309.64;;;;
2021/05/16 02:02:30;;;;;;;2.55;1.1;;;;;;;6.03;100;94309.64;;;;
2021/05/16 02:03:31;;;;;;;2.55;1.1;;;;;;;6.03;100;94309.64;;;;
2021/05/16 02:04:32;;;;;;;2.55;1.1;;;;;;;6.03;100;94309.64;;;;
2021/05/16 02:05:34;;;;;;;2.2;1.2;;;;;;;5.93;100;94304.47;;;;
2021/05/16 02:06:35;;;;;;;2.2;1.2;;;;;;;5.93;100;94304.47;;;;
2021/05/16 02:07:36;;;;;;;2.2;1.2;;;;;;;5.93;100;94304.47;;;;
2021/05/16 02:08:36;;;;;;;2.2;1.2;;;;;;;5.93;100;94304.47;;;;
2021/05/16 02:09:39;;;;;;;2.2;1.2;;;;;;;5.93;100;94304.47;;;;
2021/05/16 02:10:40;;;;;;;2.2;1.2;;;;;;;5.93;100;94304.47;;;;
2021/05/16 02:11:41;;;;;;;2.2;1.2;;;;;;;5.93;100;94304.47;;;;
2021/05/16 02:12:41;;;;;;;2.2;1.2;;;;;;;5.93;100;94304.47;;;;
2021/05/16 02:13:42;;;;;;;2.2;1.2;;;;;;;5.93;100;94304.47;;;;
2021/05/16 02:14:43;;;;;;;2.2;1.2;;;;;;;5.93;100;94304.47;;;;
2021/05/16 02:15:43;;;;;;;1.9;0.95;;;;;;;5.95;100;94301.54;;;;
2021/05/16 02:16:44;;;;;;;1.9;0.95;;;;;;;5.95;100;94301.54;;;;
2021/05/16 02:17:44;;;;;;;1.9;0.95;;;;;;;5.95;100;94301.54;;;;
2021/05/16 02:18:46;;;;;;;1.9;0.95;;;;;;;5.95;100;94301.54;;;;
2021/05/16 02:19:46;;;;;;;1.9;0.95;;;;;;;5.95;100;94301.54;;;;
2021/05/16 02:20:47;;;;;;;1.9;0.95;;;;;;;5.95;100;94301.54;;;;
2021/05/16 02:21:47;;;;;;;1.9;0.95;;;;;;;5.95;100;94301.54;;;;
2021/05/16 02:22:48;;;;;;;1.9;0.95;;;;;;;5.95;100;94301.54;;;;
2021/05/16 02:23:49;;;;;;;1.9;0.95;;;;;;;5.95;100;94301.54;;;;
2021/05/16 02:24:50;;;;;;;1.9;0.95;;;;;;;5.95;100;94301.54;;;;
2021/05/16 02:25:50;;;;;;;1.9;0.95;;;;;;;5.95;100;94301.54;;;;
2021/05/16 02:26:53;;;;;;;1.9;1.15;;;;;;;5.93;100;94305.91;;;;
2021/05/16 02:27:54;;;;;;;1.9;1.15;;;;;;;5.93;100;94305.91;;;;
2021/05/16 02:28:54;;;;;;;1.9;1.15;;;;;;;5.93;100;94305.91;;;;
2021/05/16 02:29:55;;;;;;;1.9;1.15;;;;;;;5.93;100;94305.91;;;;
2021/05/16 02:30:55;;;;;;;1.9;1.15;;;;;;;5.93;100;94305.91;;;;
2021/05/16 02:31:56;;;;;;;1.9;1.15;;;;;;;5.93;100;94305.91;;;;
2021/05/16 02:32:57;;;;;;;1.9;1.15;;;;;;;5.93;100;94305.91;;;;
2021/05/16 02:33:58;;;;;;;1.9;1.15;;;;;;;5.93;100;94305.91;;;;
2021/05/16 02:34:59;;;;;;;1.9;1.15;;;;;;;5.93;100;94305.91;;;;
2021/05/16 02:36:00;;;;;;;1.9;1.15;;;;;;;5.93;100;94305.91;;;;
2021/05/16 02:37:00;;;;;;;2.8;1.3;;;;;;;5.95;100;94314.42;;;;
2021/05/16 02:38:01;;;;;;;2.8;1.3;;;;;;;5.95;100;94314.42;;;;
2021/05/16 02:39:02;;;;;;;2.8;1.3;;;;;;;5.95;100;94314.42;;;;
2021/05/16 02:40:04;;;;;;;2.8;1.3;;;;;;;5.95;100;94314.42;;;;
2021/05/16 02:41:06;;;;;;;2.8;1.3;;;;;;;5.95;100;94314.42;;;;
2021/05/16 02:42:07;;;;;;;2.8;1.3;;;;;;;5.95;100;94314.42;;;;
2021/05/16 02:43:08;;;;;;;2.8;1.3;;;;;;;5.95;100;94314.42;;;;
2021/05/16 02:44:08;;;;;;;2.8;1.3;;;;;;;5.95;100;94314.42;;;;
2021/05/16 02:45:09;;;;;;;2.8;1.3;;;;;;;5.95;100;94314.42;;;;
2021/05/16 02:46:11;;;;;;;2.8;1.3;;;;;;;5.95;100;94314.42;;;;
2021/05/16 02:47:12;;;;;;;2.8;1.3;;;;;;;5.95;100;94314.42;;;;
2021/05/16 02:48:12;;;;;;;2.55;1.05;;;;;;;6.01;100;94314.4;;;;
2021/05/16 02:49:13;;;;;;;2.55;1.05;;;;;;;6.01;100;94314.4;;;;
2021/05/16 02:50:15;;;;;;;2.55;1.05;;;;;;;6.01;100;94314.4;;;;
2021/05/16 02:51:15;;;;;;;2.55;1.05;;;;;;;6.01;100;94314.4;;;;
2021/05/16 02:52:17;;;;;;;2.55;1.05;;;;;;;6.01;100;94314.4;;;;
2021/05/16 02:53:20;;;;;;;2.55;1.05;;;;;;;6.01;100;94314.4;;;;
2021/05/16 02:54:21;;;;;;;2.55;1.05;;;;;;;6.01;100;94314.4;;;;
2021/05/16 02:55:22;;;;;;;2.55;1.05;;;;;;;6.01;100;94314.4;;;;
2021/05/16 02:56:23;;;;;;;2.55;1.05;;;;;;;6.01;100;94314.4;;;;
2021/05/16 02:57:24;;;;;;;2.55;1.05;;;;;;;6.01;100;94314.4;;;;
2021/05/16 02:58:24;;;;;;;2.15;1.25;;;;;;;5.93;100;94313.42;;;;
2021/05/16 02:59:26;;;;;;;2.15;1.25;;;;;;;5.93;100;94313.42;;;;
2021/05/16 03:00:26;;;;;;;2.15;1.25;;;;;;;5.93;100;94313.42;;;;
2021/05/16 03:01:27;;;;;;;2.15;1.25;;;;;;;5.93;100;94313.42;;;;
2021/05/16 03:02:28;;;;;;;2.15;1.25;;;;;;;5.93;100;94313.42;;;;
2021/05/16 03:03:28;;;;;;;2.15;1.25;;;;;;;5.93;100;94313.42;;;;
2021/05/16 03:04:29;;;;;;;2.15;1.25;;;;;;;5.93;100;94313.42;;;;
2021/05/16 03:05:30;;;;;;;2.15;1.25;;;;;;;5.93;100;94313.42;;;;
2021/05/16 03:06:30;;;;;;;2.15;1.25;;;;;;;5.93;100;94313.42;;;;
2021/05/16 03:07:31;;;;;;;2.15;1.25;;;;;;;5.93;100;94313.42;;;;
2021/05/16 03:08:31;;;;;;;2.15;1.25;;;;;;;5.93;100;94313.42;;;;
2021/05/16 03:09:34;;;;;;;3.3;1.1;;;;;;;5.9;100;94321.91;;;;
2021/05/16 03:10:35;;;;;;;3.3;1.1;;;;;;;5.9;100;94321.91;;;;
2021/05/16 03:11:35;;;;;;;3.3;1.1;;;;;;;5.9;100;94321.91;;;;
2021/05/16 03:12:36;;;;;;;3.3;1.1;;;;;;;5.9;100;94321.91;;;;
2021/05/16 03:13:37;;;;;;;3.3;1.1;;;;;;;5.9;100;94321.91;;;;
2021/05/16 03:14:37;;;;;;;3.3;1.1;;;;;;;5.9;100;94321.91;;;;
2021/05/16 03:15:38;;;;;;;3.3;1.1;;;;;;;5.9;100;94321.91;;;;
2021/05/16 03:16:38;;;;;;;3.3;1.1;;;;;;;5.9;100;94321.91;;;;
2021/05/16 03:17:39;;;;;;;3.3;1.1;;;;;;;5.9;100;94321.91;;;;
2021/05/16 03:18:39;;;;;;;3.3;1.1;;;;;;;5.9;100;94321.91;;;;
2021/05/16 03:19:40;;;;;;;3.1;1.4;;;;;;;5.83;100;94314.9;;;;
2021/05/16 03:20:40;;;;;;;3.1;1.4;;;;;;;5.83;100;94314.9;;;;
2021/05/16 03:21:41;;;;;;;3.1;1.4;;;;;;;5.83;100;94314.9;;;;
2021/05/16 03:22:41;;;;;;;3.1;1.4;;;;;;;5.83;100;94314.9;;;;
2021/05/16 03:23:42;;;;;;;3.1;1.4;;;;;;;5.83;100;94314.9;;;;
2021/05/16 03:24:43;;;;;;;3.1;1.4;;;;;;;5.83;100;94314.9;;;;
2021/05/16 03:25:43;;;;;;;3.1;1.4;;;;;;;5.83;100;94314.9;;;;
2021/05/16 03:26:45;;;;;;;3.1;1.4;;;;;;;5.83;100;94314.9;;;;
2021/05/16 03:27:46;;;;;;;3.1;1.4;;;;;;;5.83;100;94314.9;;;;
2021/05/16 03:28:47;;;;;;;3.1;1.4;;;;;;;5.83;100;94314.9;;;;
2021/05/16 03:29:47;;;;;;;3.1;1.4;;;;;;;5.83;100;94314.9;;;;
2021/05/16 03:30:48;;;;;;;3.3;1.3;;;;;;;5.7;100;94304.78;;;;
2021/05/16 03:31:49;;;;;;;3.3;1.3;;;;;;;5.7;100;94304.78;;;;
2021/05/16 03:32:49;;;;;;;3.3;1.3;;;;;;;5.7;100;94304.78;;;;
2021/05/16 03:33:50;;;;;;;3.3;1.3;;;;;;;5.7;100;94304.78;;;;
2021/05/16 03:34:51;;;;;;;3.3;1.3;;;;;;;5.7;100;94304.78;;;;
2021/05/16 03:35:51;;;;;;;3.3;1.3;;;;;;;5.7;100;94304.78;;;;
2021/05/16 03:36:53;;;;;;;3.3;1.3;;;;;;;5.7;100;94304.78;;;;
2021/05/16 03:37:53;;;;;;;3.3;1.3;;;;;;;5.7;100;94304.78;;;;
2021/05/16 03:38:54;;;;;;;3.3;1.3;;;;;;;5.7;100;94304.78;;;;
2021/05/16 03:39:55;;;;;;;3.3;1.3;;;;;;;5.7;100;94304.78;;;;
2021/05/16 03:40:55;;;;;;;1.2;1.1;;;;;;;5.58;100;94316.09;;;;
2021/05/16 03:41:56;;;;;;;1.2;1.1;;;;;;;5.58;100;94316.09;;;;
2021/05/16 03:42:57;;;;;;;1.2;1.1;;;;;;;5.58;100;94316.09;;;;
2021/05/16 03:43:57;;;;;;;1.2;1.1;;;;;;;5.58;100;94316.09;;;;
2021/05/16 03:44:58;;;;;;;1.2;1.1;;;;;;;5.58;100;94316.09;;;;
2021/05/16 03:45:58;;;;;;;1.2;1.1;;;;;;;5.58;100;94316.09;;;;
2021/05/16 03:46:59;;;;;;;1.2;1.1;;;;;;;5.58;100;94316.09;;;;
2021/05/16 03:48:00;;;;;;;1.2;1.1;;;;;;;5.58;100;94316.09;;;;
2021/05/16 03:49:01;;;;;;;1.2;1.1;;;;;;;5.58;100;94316.09;;;;
2021/05/16 03:50:04;;;;;;;1.2;1.1;;;;;;;5.58;100;94316.09;;;;
2021/05/16 03:51:07;;;;;;;1.2;1.1;;;;;;;5.58;100;94316.09;;;;
2021/05/16 03:52:07;;;;;;;2.5;1.4;;;;;;;5.63;100;94311.69;;;;
2021/05/16 03:53:08;;;;;;;2.5;1.4;;;;;;;5.63;100;94311.69;;;;
2021/05/16 03:54:08;;;;;;;2.5;1.4;;;;;;;5.63;100;94311.69;;;;
2021/05/16 03:55:09;;;;;;;2.5;1.4;;;;;;;5.63;100;94311.69;;;;
2021/05/16 03:56:12;;;;;;;2.5;1.4;;;;;;;5.63;100;94311.69;;;;
2021/05/16 03:57:12;;;;;;;2.5;1.4;;;;;;;5.63;100;94311.69;;;;
2021/05/16 03:58:13;;;;;;;2.5;1.4;;;;;;;5.63;100;94311.69;;;;
2021/05/16 03:59:14;;;;;;;2.5;1.4;;;;;;;5.63;100;94311.69;;;;
2021/05/16 04:00:14;;;;;;;2.5;1.4;;;;;;;5.63;100;94311.69;;;;
2021/05/16 04:01:17;;;;;;;2.5;1.4;;;;;;;5.63;100;94311.69;;;;
2021/05/16 04:02:17;;;;;;;2.2;1.3;;;;;;;5.9;100;94322.31;;;;
2021/05/16 04:03:19;;;;;;;2.2;1.3;;;;;;;5.9;100;94322.31;;;;
2021/05/16 04:04:19;;;;;;;2.2;1.3;;;;;;;5.9;100;94322.31;;;;
2021/05/16 04:05:20;;;;;;;2.2;1.3;;;;;;;5.9;100;94322.31;;;;
2021/05/16 04:06:21;;;;;;;2.2;1.3;;;;;;;5.9;100;94322.31;;;;
2021/05/16 04:07:21;;;;;;;2.2;1.3;;;;;;;5.9;100;94322.31;;;;
2021/05/16 04:08:22;;;;;;;2.2;1.3;;;;;;;5.9;100;94322.31;;;;
2021/05/16 04:09:22;;;;;;;2.2;1.3;;;;;;;5.9;100;94322.31;;;;
2021/05/16 04:10:23;;;;;;;2.2;1.3;;;;;;;5.9;100;94322.31;;;;
2021/05/16 04:11:24;;;;;;;2.2;1.3;;;;;;;5.9;100;94322.31;;;;
2021/05/16 04:12:24;;;;;;;2.2;1.3;;;;;;;5.9;100;94322.31;;;;
2021/05/16 04:13:25;;;;;;;3.25;1.55;;;;;;;6.25;100;94325.97;;;;
2021/05/16 04:14:27;;;;;;;3.25;1.55;;;;;;;6.25;100;94325.97;;;;
2021/05/16 04:15:28;;;;;;;3.25;1.55;;;;;;;6.25;100;94325.97;;;;
2021/05/16 04:16:29;;;;;;;3.25;1.55;;;;;;;6.25;100;94325.97;;;;
2021/05/16 04:17:29;;;;;;;3.25;1.55;;;;;;;6.25;100;94325.97;;;;
2021/05/16 04:18:30;;;;;;;3.25;1.55;;;;;;;6.25;100;94325.97;;;;
2021/05/16 04:19:30;;;;;;;3.25;1.55;;;;;;;6.25;100;94325.97;;;;
2021/05/16 04:20:31;;;;;;;3.25;1.55;;;;;;;6.25;100;94325.97;;;;
2021/05/16 04:21:32;;;;;;;3.25;1.55;;;;;;;6.25;100;94325.97;;;;
2021/05/16 04:22:32;;;;;;;3.25;1.55;;;;;;;6.25;100;94325.97;;;;
2021/05/16 04:23:34;;;;;;;2.450001;1.5;;;;;;;6.54;100;94328.53;;;;
2021/05/16 04:24:34;;;;;;;2.450001;1.5;;;;;;;6.54;100;94328.53;;;;
2021/05/16 04:25:35;;;;;;;2.450001;1.5;;;;;;;6.54;100;94328.53;;;;
2021/05/16 04:26:35;;;;;;;2.450001;1.5;;;;;;;6.54;100;94328.53;;;;
2021/05/16 04:27:36;;;;;;;2.450001;1.5;;;;;;;6.54;100;94328.53;;;;
2021/05/16 04:28:36;;;;;;;2.450001;1.5;;;;;;;6.54;100;94328.53;;;;
2021/05/16 04:29:37;;;;;;;2.450001;1.5;;;;;;;6.54;100;94328.53;;;;
2021/05/16 04:30:37;;;;;;;2.450001;1.5;;;;;;;6.54;100;94328.53;;;;
2021/05/16 04:31:38;;;;;;;2.450001;1.5;;;;;;;6.54;100;94328.53;;;;
2021/05/16 04:32:39;;;;;;;2.450001;1.5;;;;;;;6.54;100;94328.53;;;;
2021/05/16 04:33:39;;;;;;;2.450001;1.5;;;;;;;6.54;100;94328.53;;;;
2021/05/16 04:34:40;;;;;;;2.750001;1.4;;;;;;;6.63;100;94339.2;;;;
2021/05/16 04:35:40;;;;;;;2.750001;1.4;;;;;;;6.63;100;94339.2;;;;
2021/05/16 04:36:41;;;;;;;2.750001;1.4;;;;;;;6.63;100;94339.2;;;;
2021/05/16 04:37:41;;;;;;;2.750001;1.4;;;;;;;6.63;100;94339.2;;;;
2021/05/16 04:38:42;;;;;;;2.750001;1.4;;;;;;;6.63;100;94339.2;;;;
2021/05/16 04:39:42;;;;;;;2.750001;1.4;;;;;;;6.63;100;94339.2;;;;
2021/05/16 04:40:45;;;;;;;2.750001;1.4;;;;;;;6.63;100;94339.2;;;;
2021/05/16 04:41:46;;;;;;;2.750001;1.4;;;;;;;6.63;100;94339.2;;;;
2021/05/16 04:42:46;;;;;;;2.750001;1.4;;;;;;;6.63;100;94339.2;;;;
2021/05/16 04:43:47;;;;;;;2.750001;1.4;;;;;;;6.63;100;94339.2;;;;
2021/05/16 04:44:47;;;;;;;2.750001;1.4;;;;;;;6.63;100;94339.2;;;;
2021/05/16 04:45:48;;;;;;;4.5;1.65;;;;;;;6.88;100;94335.83;;;;
2021/05/16 04:46:48;;;;;;;4.5;1.65;;;;;;;6.88;100;94335.83;;;;
2021/05/16 04:47:49;;;;;;;4.5;1.65;;;;;;;6.88;100;94335.83;;;;
2021/05/16 04:48:50;;;;;;;4.5;1.65;;;;;;;6.88;100;94335.83;;;;
2021/05/16 04:49:51;;;;;;;4.5;1.65;;;;;;;6.88;100;94335.83;;;;
2021/05/16 04:50:52;;;;;;;4.5;1.65;;;;;;;6.88;100;94335.83;;;;
2021/05/16 04:51:52;;;;;;;4.5;1.65;;;;;;;6.88;100;94335.83;;;;
2021/05/16 04:52:53;;;;;;;4.5;1.65;;;;;;;6.88;100;94335.83;;;;
2021/05/16 04:53:53;;;;;;;4.5;1.65;;;;;;;6.88;100;94335.83;;;;
2021/05/16 04:54:54;;;;;;;4.5;1.65;;;;;;;6.88;100;94335.83;;;;
2021/05/16 04:55:54;;;;;;;3.45;1.4;;;;;;;7.46;100;94339.58;;;;
2021/05/16 04:56:55;;;;;;;3.45;1.4;;;;;;;7.46;100;94339.58;;;;
2021/05/16 04:57:55;;;;;;;3.45;1.4;;;;;;;7.46;100;94339.58;;;;
2021/05/16 04:58:56;;;;;;;3.45;1.4;;;;;;;7.46;100;94339.58;;;;
2021/05/16 04:59:57;;;;;;;3.45;1.4;;;;;;;7.46;100;94339.58;;;;
2021/05/16 05:00:58;;;;;;;3.45;1.4;;;;;;;7.46;100;94339.58;;;;
2021/05/16 05:01:59;;;;;;;3.45;1.4;;;;;;;7.46;100;94339.58;;;;
2021/05/16 05:02:59;;;;;;;3.45;1.4;;;;;;;7.46;100;94339.58;;;;
2021/05/16 05:04:00;;;;;;;3.45;1.4;;;;;;;7.46;100;94339.58;;;;
2021/05/16 05:05:00;;;;;;;3.45;1.4;;;;;;;7.46;100;94339.58;;;;
2021/05/16 05:06:01;;;;;;;3.45;1.4;;;;;;;7.46;100;94339.58;;;;
2021/05/16 05:07:02;;;;;;;2.3;1.4;;;;;;;8.22;100;94335.4;;;;
2021/05/16 05:08:04;;;;;;;2.3;1.4;;;;;;;8.22;100;94335.4;;;;
2021/05/16 05:09:05;;;;;;;2.3;1.4;;;;;;;8.22;100;94335.4;;;;
2021/05/16 05:10:06;;;;;;;2.3;1.4;;;;;;;8.22;100;94335.4;;;;
2021/05/16 05:11:08;;;;;;;2.3;1.4;;;;;;;8.22;100;94335.4;;;;
2021/05/16 05:12:09;;;;;;;2.3;1.4;;;;;;;8.22;100;94335.4;;;;
2021/05/16 05:13:09;;;;;;;2.3;1.4;;;;;;;8.22;100;94335.4;;;;
2021/05/16 05:14:10;;;;;;;2.3;1.4;;;;;;;8.22;100;94335.4;;;;
2021/05/16 05:15:10;;;;;;;2.3;1.4;;;;;;;8.22;100;94335.4;;;;
2021/05/16 05:16:11;;;;;;;2.3;1.4;;;;;;;8.22;100;94335.4;;;;
2021/05/16 05:17:11;;;;;;;3;1.3;;;;;;;8.82;100;94338.75;;;;
2021/05/16 05:18:12;;;;;;;3;1.3;;;;;;;8.82;100;94338.75;;;;
2021/05/16 05:19:14;;;;;;;3;1.3;;;;;;;8.82;100;94338.75;;;;
2021/05/16 05:20:15;;;;;;;3;1.3;;;;;;;8.82;100;94338.75;;;;
2021/05/16 05:21:16;;;;;;;3;1.3;;;;;;;8.82;100;94338.75;;;;
2021/05/16 05:22:17;;;;;;;3;1.3;;;;;;;8.82;100;94338.75;;;;
2021/05/16 05:23:17;;;;;;;3;1.3;;;;;;;8.82;100;94338.75;;;;
2021/05/16 05:24:18;;;;;;;3;1.3;;;;;;;8.82;100;94338.75;;;;
2021/05/16 05:25:19;;;;;;;3;1.3;;;;;;;8.82;100;94338.75;;;;
2021/05/16 05:26:19;;;;;;;3;1.3;;;;;;;8.82;100;94338.75;;;;
2021/05/16 05:27:20;;;;;;;3;1.3;;;;;;;8.82;100;94338.75;;;;
2021/05/16 05:28:20;;;;;;;3.7;1.7;;;;;;;9.34;100;94342.27;;;;
2021/05/16 05:29:21;;;;;;;3.7;1.7;;;;;;;9.34;100;94342.27;;;;
2021/05/16 05:30:22;;;;;;;3.7;1.7;;;;;;;9.34;100;94342.27;;;;
2021/05/16 05:31:23;;;;;;;3.7;1.7;;;;;;;9.34;100;94342.27;;;;
2021/05/16 05:32:24;;;;;;;3.7;1.7;;;;;;;9.34;100;94342.27;;;;
2021/05/16 05:33:25;;;;;;;3.7;1.7;;;;;;;9.34;100;94342.27;;;;
2021/05/16 05:34:26;;;;;;;3.7;1.7;;;;;;;9.34;100;94342.27;;;;
2021/05/16 05:35:26;;;;;;;3.7;1.7;;;;;;;9.34;100;94342.27;;;;
2021/05/16 05:36:27;;;;;;;3.7;1.7;;;;;;;9.34;100;94342.27;;;;
2021/05/16 05:37:28;;;;;;;3.7;1.7;;;;;;;9.34;100;94342.27;;;;
2021/05/16 05:38:29;;;;;;;3.7;1.7;;;;;;;9.34;100;94342.27;;;;
2021/05/16 05:39:29;;;;;;;3.7;1.7;;;;;;;9.34;100;94342.27;;;;
2021/05/16 05:40:30;;;;;;;3.7;1.7;;;;;;;9.34;100;94342.27;;;;
2021/05/16 05:41:30;;;;;;;3.7;1.7;;;;;;;9.34;100;94342.27;;;;
2021/05/16 05:42:31;;;;;;;3.7;1.7;;;;;;;9.34;100;94342.27;;;;
2021/05/16 05:43:31;;;;;;;3.7;1.7;;;;;;;9.34;100;94342.27;;;;
2021/05/16 05:44:32;;;;;;;3.7;1.7;;;;;;;9.34;100;94342.27;;;;
2021/05/16 05:45:33;;;;;;;3.7;1.7;;;;;;;9.34;100;94342.27;;;;
2021/05/16 05:46:34;;;;;;;3.7;1.7;;;;;;;9.34;100;94342.27;;;;
2021/05/16 05:47:35;;;;;;;3.7;1.7;;;;;;;9.34;100;94342.27;;;;
2021/05/16 05:48:35;;;;;;;3.7;1.7;;;;;;;9.34;100;94342.27;;;;
2021/05/16 05:49:37;;;;;;;3.7;1.7;;;;;;;9.34;100;94342.27;;;;
2021/05/16 05:50:38;;;;;;;3.15;1.65;;;;;;;10.43;100;94332.89;;;;
2021/05/16 05:51:38;;;;;;;3.15;1.65;;;;;;;10.43;100;94332.89;;;;
2021/05/16 05:52:39;;;;;;;3.15;1.65;;;;;;;10.43;100;94332.89;;;;
2021/05/16 05:53:40;;;;;;;3.15;1.65;;;;;;;10.43;100;94332.89;;;;
2021/05/16 05:54:40;;;;;;;3.15;1.65;;;;;;;10.43;100;94332.89;;;;
2021/05/16 05:55:41;;;;;;;3.15;1.65;;;;;;;10.43;100;94332.89;;;;
2021/05/16 05:56:41;;;;;;;3.15;1.65;;;;;;;10.43;100;94332.89;;;;
2021/05/16 05:57:42;;;;;;;3.15;1.65;;;;;;;10.43;100;94332.89;;;;
2021/05/16 05:58:43;;;;;;;3.15;1.65;;;;;;;10.43;100;94332.89;;;;
2021/05/16 05:59:44;;;;;;;3.15;1.65;;;;;;;10.43;100;94332.89;;;;
2021/05/16 06:00:44;;;;;;;3.750001;1.9;;;;;;;10.75;100;94338.65;;;;
2021/05/16 06:01:45;;;;;;;3.750001;1.9;;;;;;;10.75;100;94338.65;;;;
2021/05/16 06:02:45;;;;;;;3.750001;1.9;;;;;;;10.75;100;94338.65;;;;
2021/05/16 06:03:47;;;;;;;3.750001;1.9;;;;;;;10.75;100;94338.65;;;;
2021/05/16 06:04:48;;;;;;;3.750001;1.9;;;;;;;10.75;100;94338.65;;;;
2021/05/16 06:05:48;;;;;;;3.750001;1.9;;;;;;;10.75;100;94338.65;;;;
2021/05/16 06:06:49;;;;;;;3.750001;1.9;;;;;;;10.75;100;94338.65;;;;
2021/05/16 06:07:49;;;;;;;3.750001;1.9;;;;;;;10.75;100;94338.65;;;;
2021/05/16 06:08:50;;;;;;;3.750001;1.9;;;;;;;10.75;100;94338.65;;;;
2021/05/16 06:09:50;;;;;;;3.750001;1.9;;;;;;;10.75;100;94338.65;;;;
2021/05/16 06:10:51;;;;;;;3.750001;1.9;;;;;;;10.75;100;94338.65;;;;
2021/05/16 06:11:51;;;;;;;6.349999;1.8;;;;;;;11.18;100;94332.98;;;;
2021/05/16 06:12:52;;;;;;;6.349999;1.8;;;;;;;11.18;100;94332.98;;;;
2021/05/16 06:13:52;;;;;;;6.349999;1.8;;;;;;;11.18;100;94332.98;;;;
2021/05/16 06:14:54;;;;;;;6.349999;1.8;;;;;;;11.18;100;94332.98;;;;
2021/05/16 06:15:54;;;;;;;6.349999;1.8;;;;;;;11.18;100;94332.98;;;;
2021/05/16 06:16:54;;;;;;;6.349999;1.8;;;;;;;11.18;100;94332.98;;;;
2021/05/16 06:17:55;;;;;;;6.349999;1.8;;;;;;;11.18;100;94332.98;;;;
2021/05/16 06:18:57;;;;;;;6.349999;1.8;;;;;;;11.18;100;94332.98;;;;
2021/05/16 06:19:57;;;;;;;6.349999;1.8;;;;;;;11.18;100;94332.98;;;;
2021/05/16 06:20:58;;;;;;;6.349999;1.8;;;;;;;11.18;100;94332.98;;;;
2021/05/16 06:21:59;;;;;;;4.550001;1.65;;;;;;;11.4;100;94344.03;;;;
2021/05/16 06:23:01;;;;;;;4.550001;1.65;;;;;;;11.4;100;94344.03;;;;
2021/05/16 06:24:05;;;;;;;4.550001;1.65;;;;;;;11.4;100;94344.03;;;;
2021/05/16 06:25:06;;;;;;;4.550001;1.65;;;;;;;11.4;100;94344.03;;;;
2021/05/16 06:26:08;;;;;;;4.550001;1.65;;;;;;;11.4;100;94344.03;;;;